Time;durP1;ratioP1;P1;durP2;ratioP2;P2;SDS_P1;SDS_P2;PMS_P1;PMS_P2;Temp;Humidity;BMP_temperature;BMP_pressure;BME280_temperature;BME280_humidity;BME280_pressure;Samples;Min_cycle;Max_cycle;Signal;HPM_P1;HPM_P2
2023/12/26 00:01:08;;;;;;;2.00;1.60;;;11.10;99.90;;;;;;5034733;28;20496;-83
2023/12/26 00:03:37;;;;;;;3.53;1.23;;;11.10;99.90;;;;;;5034891;28;20965;-83
2023/12/26 00:06:04;;;;;;;2.83;1.80;;;11.10;99.90;;;;;;5034572;28;20487;-82
2023/12/26 00:08:31;;;;;;;2.07;1.40;;;11.10;99.90;;;;;;5034797;28;20481;-82
2023/12/26 00:10:58;;;;;;;1.80;1.30;;;11.10;99.90;;;;;;5036318;28;20488;-82
2023/12/26 00:13:25;;;;;;;1.90;1.60;;;11.10;99.90;;;;;;5039056;28;20505;-81
2023/12/26 00:15:52;;;;;;;2.00;1.60;;;11.10;99.90;;;;;;5038387;28;20479;-84
2023/12/26 00:18:19;;;;;;;3.33;1.50;;;11.10;99.90;;;;;;5038824;28;20898;-82
2023/12/26 00:20:47;;;;;;;2.60;1.43;;;11.10;99.90;;;;;;5038246;28;20508;-82
2023/12/26 00:23:15;;;;;;;2.20;1.37;;;11.10;99.90;;;;;;5038373;28;20484;-82
2023/12/26 00:25:44;;;;;;;2.07;1.03;;;11.10;99.90;;;;;;5037595;28;20445;-83
2023/12/26 00:28:13;;;;;;;2.27;1.23;;;11.10;99.90;;;;;;5037465;28;20913;-83
2023/12/26 00:30:40;;;;;;;1.50;1.10;;;11.00;99.90;;;;;;5037434;28;20472;-81
2023/12/26 00:33:07;;;;;;;3.20;1.57;;;11.00;99.90;;;;;;5038477;28;20480;-81
2023/12/26 00:35:34;;;;;;;1.80;1.40;;;11.00;99.90;;;;;;5037581;28;20547;-82
2023/12/26 00:38:02;;;;;;;1.70;1.27;;;11.00;99.90;;;;;;5038373;28;20489;-83
2023/12/26 00:40:29;;;;;;;2.33;1.60;;;11.00;99.90;;;;;;5037830;28;20560;-82
2023/12/26 00:42:56;;;;;;;3.70;1.37;;;11.00;99.90;;;;;;5037403;28;20531;-81
2023/12/26 00:45:25;;;;;;;2.40;1.47;;;11.00;99.90;;;;;;5037800;28;20461;-81
2023/12/26 00:47:51;;;;;;;1.50;1.00;;;11.00;99.90;;;;;;5037558;28;20543;-81
2023/12/26 00:50:18;;;;;;;1.60;1.10;;;11.00;99.90;;;;;;5037267;28;21040;-81
2023/12/26 00:52:45;;;;;;;1.90;1.23;;;11.00;99.90;;;;;;5033796;28;20618;-81
2023/12/26 00:55:14;;;;;;;5.53;1.20;;;11.00;99.90;;;;;;5037270;28;20907;-81
2023/12/26 00:57:40;;;;;;;2.00;0.97;;;11.00;99.90;;;;;;5036868;28;20960;-78
2023/12/26 01:00:09;;;;;;;2.13;1.20;;;11.00;99.90;;;;;;5037299;28;21051;-80
2023/12/26 01:02:35;;;;;;;1.90;1.07;;;11.00;99.90;;;;;;5037355;28;21610;-81
2023/12/26 01:05:03;;;;;;;1.70;0.80;;;11.00;99.90;;;;;;5036985;28;20873;-82
2023/12/26 01:07:30;;;;;;;2.20;1.10;;;11.00;99.90;;;;;;5037256;28;20467;-82
2023/12/26 01:09:57;;;;;;;1.93;0.87;;;11.00;99.90;;;;;;5037451;28;20496;-82
2023/12/26 01:12:25;;;;;;;1.80;1.10;;;10.90;99.90;;;;;;5037510;28;20571;-82
2023/12/26 01:14:52;;;;;;;1.70;0.90;;;10.90;99.90;;;;;;5036881;28;20543;-82
2023/12/26 01:17:19;;;;;;;1.90;1.40;;;10.80;99.90;;;;;;5036278;28;20880;-82
2023/12/26 01:19:47;;;;;;;8.40;3.40;;;10.80;99.90;;;;;;5035251;28;20493;-81
2023/12/26 01:22:14;;;;;;;2.70;1.50;;;10.80;99.90;;;;;;5034007;28;20543;-82
2023/12/26 01:24:40;;;;;;;1.30;0.87;;;10.80;99.90;;;;;;5018506;28;20483;-81
2023/12/26 01:27:07;;;;;;;1.87;0.90;;;10.70;99.90;;;;;;5036170;28;20479;-81
2023/12/26 01:29:36;;;;;;;1.60;1.10;;;10.70;99.90;;;;;;5035134;28;20857;-81
2023/12/26 01:32:02;;;;;;;1.70;1.00;;;10.60;99.90;;;;;;5036128;28;20574;-82
2023/12/26 01:34:29;;;;;;;1.50;0.90;;;10.60;99.90;;;;;;5036116;28;20485;-82
2023/12/26 01:36:56;;;;;;;1.50;0.90;;;10.70;99.90;;;;;;5036654;28;20539;-80
2023/12/26 01:39:25;;;;;;;2.80;1.10;;;10.70;99.90;;;;;;5040109;28;20472;-82
2023/12/26 01:41:53;;;;;;;1.60;1.00;;;10.60;99.90;;;;;;5040363;28;20472;-83
2023/12/26 01:44:22;;;;;;;1.90;1.30;;;10.60;99.90;;;;;;5040003;28;20541;-81
2023/12/26 01:46:52;;;;;;;2.00;1.00;;;10.60;99.90;;;;;;5039624;28;20480;-82
2023/12/26 01:49:19;;;;;;;1.90;1.10;;;10.60;99.90;;;;;;5036297;28;20475;-81
2023/12/26 01:51:48;;;;;;;1.60;1.03;;;10.60;99.90;;;;;;5038981;28;20516;-83
2023/12/26 01:54:19;;;;;;;2.37;1.10;;;10.60;99.90;;;;;;5040089;28;20525;-82
2023/12/26 01:56:49;;;;;;;2.43;1.10;;;10.60;99.90;;;;;;5035993;28;20487;-83
2023/12/26 01:59:16;;;;;;;1.50;1.00;;;10.60;99.90;;;;;;5035677;28;20490;-80
2023/12/26 02:01:45;;;;;;;1.90;1.30;;;10.50;99.90;;;;;;5035222;28;20507;-82
2023/12/26 02:04:14;;;;;;;2.53;1.17;;;10.50;99.90;;;;;;5040014;28;20448;-83
2023/12/26 02:06:41;;;;;;;2.20;1.10;;;10.50;99.90;;;;;;5020817;28;20466;-82
2023/12/26 02:09:10;;;;;;;2.63;1.30;;;10.40;99.90;;;;;;5038188;28;20480;-82
2023/12/26 02:11:37;;;;;;;4.07;1.60;;;10.50;99.90;;;;;;5038429;28;20527;-84
2023/12/26 02:14:05;;;;;;;2.83;1.50;;;10.50;99.90;;;;;;5021464;28;20459;-83
2023/12/26 02:16:35;;;;;;;2.17;0.93;;;10.50;99.90;;;;;;5038800;28;20490;-82
2023/12/26 02:19:02;;;;;;;1.60;0.97;;;10.50;99.90;;;;;;5038335;28;20483;-81
2023/12/26 02:21:32;;;;;;;2.70;1.13;;;10.50;99.90;;;;;;5032985;28;21217;-83
2023/12/26 02:24:00;;;;;;;2.53;1.00;;;10.50;99.90;;;;;;5039655;28;20448;-82
2023/12/26 02:26:30;;;;;;;2.10;1.20;;;10.50;99.90;;;;;;5036221;28;21200;-81
2023/12/26 02:28:59;;;;;;;2.70;0.80;;;10.40;99.90;;;;;;5036640;28;20475;-81
2023/12/26 02:31:27;;;;;;;1.40;0.80;;;10.40;99.90;;;;;;5036015;28;20499;-81
2023/12/26 02:33:54;;;;;;;1.60;1.00;;;10.40;99.90;;;;;;5036713;28;21030;-80
2023/12/26 02:36:22;;;;;;;1.70;0.87;;;10.40;99.90;;;;;;5037727;28;20468;-80
2023/12/26 02:38:48;;;;;;;2.80;1.10;;;10.50;99.90;;;;;;5037576;28;20535;-81
2023/12/26 02:41:17;;;;;;;1.50;1.10;;;10.40;99.90;;;;;;5033728;28;20536;-83
2023/12/26 02:43:44;;;;;;;1.97;1.10;;;10.40;99.90;;;;;;5037140;28;20471;-81
2023/12/26 02:46:12;;;;;;;3.33;1.27;;;10.30;99.90;;;;;;5037669;28;20488;-82
2023/12/26 02:48:39;;;;;;;2.70;1.00;;;10.30;99.90;;;;;;5037312;28;20964;-82
2023/12/26 02:51:07;;;;;;;1.50;0.90;;;10.30;99.90;;;;;;5038600;28;20510;-82
2023/12/26 02:53:34;;;;;;;1.50;1.00;;;10.30;99.90;;;;;;5038568;28;21087;-81
2023/12/26 02:56:02;;;;;;;1.53;0.90;;;10.30;99.90;;;;;;5038133;28;20491;-83
2023/12/26 02:58:30;;;;;;;1.60;1.00;;;10.30;99.90;;;;;;5037525;28;20907;-82
2023/12/26 03:00:57;;;;;;;1.93;0.90;;;10.30;99.90;;;;;;5038948;28;20479;-82
2023/12/26 03:03:24;;;;;;;2.67;1.00;;;10.30;99.90;;;;;;5038374;28;20460;-81
2023/12/26 03:05:51;;;;;;;2.17;1.17;;;10.30;99.90;;;;;;5038136;28;20463;-80
2023/12/26 03:08:17;;;;;;;1.87;0.90;;;10.30;99.90;;;;;;5036983;28;20491;-83
2023/12/26 03:10:44;;;;;;;1.50;1.10;;;10.20;99.90;;;;;;5036279;28;20510;-82
2023/12/26 03:13:11;;;;;;;2.20;1.00;;;10.20;99.90;;;;;;5037612;28;20513;-83
2023/12/26 03:15:39;;;;;;;2.53;1.53;;;10.20;99.90;;;;;;5031821;28;20496;-83
2023/12/26 03:18:06;;;;;;;3.10;1.10;;;10.30;99.90;;;;;;5037311;28;20488;-83
2023/12/26 03:20:33;;;;;;;2.37;0.90;;;10.30;99.90;;;;;;5037388;28;20511;-81
2023/12/26 03:23:00;;;;;;;2.40;0.97;;;10.30;99.90;;;;;;5037421;28;20479;-82
2023/12/26 03:25:27;;;;;;;1.40;0.90;;;10.20;99.90;;;;;;5037283;28;20491;-81
2023/12/26 03:27:53;;;;;;;2.20;0.87;;;10.30;99.90;;;;;;5037040;28;20480;-80
2023/12/26 03:30:20;;;;;;;1.90;1.03;;;10.30;99.90;;;;;;5036375;28;20481;-83
2023/12/26 03:32:48;;;;;;;1.90;1.07;;;10.30;99.90;;;;;;5035978;28;20523;-83
2023/12/26 03:35:15;;;;;;;2.73;1.20;;;10.30;99.90;;;;;;5035365;28;20473;-83
2023/12/26 03:37:42;;;;;;;1.50;0.97;;;10.30;99.90;;;;;;5035761;28;20498;-83
2023/12/26 03:40:11;;;;;;;2.87;1.30;;;10.30;99.90;;;;;;5035471;28;20508;-83
2023/12/26 03:42:37;;;;;;;1.93;0.93;;;10.30;99.90;;;;;;5036862;28;20535;-83
2023/12/26 03:45:05;;;;;;;1.40;0.70;;;10.30;99.90;;;;;;5036172;28;20499;-83
2023/12/26 03:47:31;;;;;;;1.37;0.80;;;10.30;99.90;;;;;;5040659;28;20483;-82
2023/12/26 03:50:00;;;;;;;1.30;0.70;;;10.40;99.90;;;;;;5040585;28;20503;-79
2023/12/26 03:52:27;;;;;;;2.07;0.80;;;10.30;99.90;;;;;;5040119;28;20872;-82
2023/12/26 03:54:57;;;;;;;2.23;0.90;;;10.30;99.90;;;;;;5039979;28;20456;-83
2023/12/26 03:57:23;;;;;;;1.30;0.80;;;10.30;99.90;;;;;;5040388;28;20892;-83
2023/12/26 03:59:50;;;;;;;2.57;0.93;;;10.30;99.90;;;;;;5039642;28;20546;-81
2023/12/26 04:02:17;;;;;;;4.90;1.47;;;10.30;99.90;;;;;;5040500;28;20487;-84
2023/12/26 04:04:45;;;;;;;1.97;1.00;;;10.30;99.90;;;;;;5039472;28;20458;-83
2023/12/26 04:07:13;;;;;;;2.90;1.30;;;10.30;99.90;;;;;;5040449;28;20462;-83
2023/12/26 04:09:40;;;;;;;1.50;0.87;;;10.30;99.90;;;;;;5039828;28;20493;-84
2023/12/26 04:12:07;;;;;;;1.73;1.00;;;10.30;99.90;;;;;;5039640;28;20579;-83
2023/12/26 04:14:34;;;;;;;1.70;0.80;;;10.30;99.90;;;;;;5041342;28;20503;-82
2023/12/26 04:17:01;;;;;;;3.43;1.00;;;10.20;99.90;;;;;;5039760;28;20506;-81
2023/12/26 04:19:27;;;;;;;2.00;1.00;;;10.20;99.90;;;;;;5039355;28;20918;-82
2023/12/26 04:21:54;;;;;;;2.60;1.00;;;10.20;99.90;;;;;;5039290;28;20923;-84
2023/12/26 04:24:22;;;;;;;1.77;0.97;;;10.20;99.90;;;;;;5040064;28;21136;-84
2023/12/26 04:26:49;;;;;;;1.67;1.10;;;10.20;99.90;;;;;;5039928;28;20480;-82
2023/12/26 04:29:16;;;;;;;1.60;0.90;;;10.30;99.90;;;;;;5040030;28;20960;-83
2023/12/26 04:31:43;;;;;;;1.50;0.90;;;10.30;99.90;;;;;;5039220;28;20484;-83
2023/12/26 04:34:10;;;;;;;1.67;0.87;;;10.30;99.90;;;;;;5039548;28;20606;-82
2023/12/26 04:36:37;;;;;;;1.60;1.20;;;10.30;99.90;;;;;;5040356;28;20483;-83
2023/12/26 04:39:04;;;;;;;1.70;1.17;;;10.30;99.90;;;;;;5039702;28;20479;-82
2023/12/26 04:41:33;;;;;;;1.50;1.20;;;10.30;99.90;;;;;;5039336;28;20480;-83
2023/12/26 04:44:00;;;;;;;2.10;0.90;;;10.30;99.90;;;;;;5039880;28;20456;-83
2023/12/26 04:46:27;;;;;;;1.57;1.10;;;10.30;99.90;;;;;;5040119;28;20479;-83
2023/12/26 04:48:54;;;;;;;1.83;1.27;;;10.30;99.90;;;;;;5039933;28;20491;-80
2023/12/26 04:51:21;;;;;;;1.87;1.67;;;10.30;99.90;;;;;;5039638;28;20985;-82
2023/12/26 04:53:49;;;;;;;1.90;1.70;;;10.30;99.90;;;;;;5039609;28;21056;-83
2023/12/26 04:56:17;;;;;;;3.87;1.97;;;10.40;99.90;;;;;;5039367;28;20534;-82
2023/12/26 04:58:47;;;;;;;2.57;2.13;;;10.30;99.90;;;;;;5039272;28;20560;-82
2023/12/26 05:01:14;;;;;;;3.10;1.87;;;10.30;99.90;;;;;;5038308;28;20472;-82
2023/12/26 05:03:41;;;;;;;4.70;2.93;;;10.30;99.90;;;;;;5038398;28;20481;-82
2023/12/26 05:06:08;;;;;;;2.23;1.83;;;10.40;99.90;;;;;;5038953;28;20490;-81
2023/12/26 05:08:38;;;;;;;2.77;2.37;;;10.40;99.90;;;;;;5038677;28;20455;-82
2023/12/26 05:11:05;;;;;;;2.50;2.00;;;10.40;99.90;;;;;;5038797;28;20465;-83
2023/12/26 05:13:32;;;;;;;2.40;1.87;;;10.30;99.90;;;;;;5039528;28;20524;-83
2023/12/26 05:16:03;;;;;;;2.33;1.87;;;10.30;99.90;;;;;;5039781;28;20495;-82
2023/12/26 05:18:30;;;;;;;4.17;2.37;;;10.30;99.90;;;;;;5038465;28;20452;-83
2023/12/26 05:20:57;;;;;;;3.93;2.20;;;10.30;99.90;;;;;;5038487;28;20507;-83
2023/12/26 05:23:24;;;;;;;7.00;2.17;;;10.30;99.90;;;;;;5039159;28;20480;-83
2023/12/26 05:25:51;;;;;;;2.20;1.80;;;10.30;99.90;;;;;;5038361;28;20534;-81
2023/12/26 05:28:17;;;;;;;3.27;1.83;;;10.30;99.90;;;;;;5038741;28;20895;-82
2023/12/26 05:30:45;;;;;;;4.00;1.50;;;10.30;99.90;;;;;;5037295;28;20511;-83
2023/12/26 05:33:13;;;;;;;2.03;1.77;;;10.30;99.90;;;;;;5037909;28;20547;-82
2023/12/26 05:35:40;;;;;;;3.03;1.87;;;10.30;99.90;;;;;;5038723;28;20489;-82
2023/12/26 05:38:06;;;;;;;2.93;1.83;;;10.20;99.90;;;;;;5039118;28;20483;-82
2023/12/26 05:40:33;;;;;;;5.70;1.50;;;10.30;99.90;;;;;;5038438;28;20516;-83
2023/12/26 05:43:00;;;;;;;2.43;1.70;;;10.30;99.90;;;;;;5039115;28;20460;-81
2023/12/26 05:45:27;;;;;;;7.30;2.13;;;10.20;99.90;;;;;;5039854;28;20487;-82
2023/12/26 05:47:54;;;;;;;2.20;2.00;;;10.20;99.90;;;;;;5040063;28;20483;-81
2023/12/26 05:50:22;;;;;;;4.00;1.93;;;10.10;99.90;;;;;;5039350;28;20507;-82
2023/12/26 05:52:49;;;;;;;4.87;2.10;;;10.20;99.90;;;;;;5038893;28;20527;-83
2023/12/26 05:55:16;;;;;;;5.07;3.07;;;10.20;99.90;;;;;;5038824;28;20479;-83
2023/12/26 05:57:43;;;;;;;3.83;2.10;;;10.20;99.90;;;;;;5039133;28;20473;-80
2023/12/26 06:00:10;;;;;;;3.93;1.60;;;10.20;99.90;;;;;;5039278;28;20504;-81
2023/12/26 06:02:37;;;;;;;5.90;1.90;;;10.20;99.90;;;;;;5039889;28;20471;-82
2023/12/26 06:05:06;;;;;;;2.30;1.50;;;10.20;99.90;;;;;;5038923;28;20872;-82
2023/12/26 06:07:34;;;;;;;2.37;1.53;;;10.20;99.90;;;;;;5038166;28;20611;-82
2023/12/26 06:10:01;;;;;;;3.00;2.27;;;10.30;99.90;;;;;;5037642;28;20472;-82
2023/12/26 06:12:29;;;;;;;3.53;2.47;;;10.30;99.90;;;;;;5038393;28;20520;-83
2023/12/26 06:14:55;;;;;;;3.83;2.00;;;10.20;99.90;;;;;;5038016;28;20444;-81
2023/12/26 06:17:22;;;;;;;3.43;1.97;;;10.20;99.90;;;;;;5037945;28;20546;-83
2023/12/26 06:19:49;;;;;;;3.50;2.03;;;10.20;99.90;;;;;;5037771;28;20460;-82
2023/12/26 06:22:17;;;;;;;2.63;1.60;;;10.20;99.90;;;;;;5038835;28;20836;-82
2023/12/26 06:24:45;;;;;;;4.40;2.03;;;10.20;99.90;;;;;;5038454;28;20901;-83
2023/12/26 06:27:12;;;;;;;4.90;2.40;;;10.20;99.90;;;;;;5039253;28;20888;-82
2023/12/26 06:29:39;;;;;;;4.00;2.00;;;10.20;99.90;;;;;;5039358;28;20478;-83
2023/12/26 06:32:06;;;;;;;3.00;2.27;;;10.20;99.90;;;;;;5038472;28;20476;-82
2023/12/26 06:34:33;;;;;;;5.70;2.27;;;10.10;99.90;;;;;;5037516;28;20938;-83
2023/12/26 06:37:00;;;;;;;6.03;3.00;;;10.10;99.90;;;;;;5037172;28;20904;-81
2023/12/26 06:39:27;;;;;;;7.53;2.60;;;10.10;99.90;;;;;;5036438;28;20519;-82
2023/12/26 06:41:55;;;;;;;4.13;3.20;;;10.20;99.90;;;;;;5037734;28;20506;-82
2023/12/26 06:44:22;;;;;;;7.60;3.20;;;10.20;99.90;;;;;;5037486;28;20480;-82
2023/12/26 06:46:48;;;;;;;8.13;2.40;;;10.20;99.90;;;;;;5037808;28;20488;-80
2023/12/26 06:49:17;;;;;;;3.60;2.57;;;10.20;99.90;;;;;;5038192;28;20579;-78
2023/12/26 06:51:44;;;;;;;7.10;2.53;;;10.20;99.90;;;;;;5038403;28;20534;-80
2023/12/26 06:54:11;;;;;;;4.27;2.10;;;10.20;99.90;;;;;;5036590;28;20531;-84
2023/12/26 06:56:38;;;;;;;6.57;3.20;;;10.10;99.90;;;;;;5037573;28;21007;-82
2023/12/26 06:59:07;;;;;;;4.03;1.60;;;10.10;99.90;;;;;;5037641;28;20554;-82
2023/12/26 07:01:34;;;;;;;2.00;1.33;;;10.00;99.90;;;;;;5037734;28;20506;-83
2023/12/26 07:04:01;;;;;;;5.77;2.60;;;9.90;99.90;;;;;;5039136;28;20455;-82
2023/12/26 07:06:28;;;;;;;5.97;1.47;;;9.90;99.90;;;;;;5041590;28;20456;-82
2023/12/26 07:08:55;;;;;;;6.37;1.53;;;9.80;99.90;;;;;;5038127;28;20502;-79
2023/12/26 07:11:22;;;;;;;4.80;2.17;;;9.70;99.90;;;;;;5037986;28;20503;-79
2023/12/26 07:13:49;;;;;;;4.93;2.13;;;9.60;99.90;;;;;;5039382;28;20491;-80
2023/12/26 07:16:17;;;;;;;6.20;1.33;;;9.60;99.90;;;;;;5038402;28;20879;-79
2023/12/26 07:18:45;;;;;;;4.83;1.20;;;9.60;99.90;;;;;;5037362;28;20916;-81
2023/12/26 07:21:13;;;;;;;5.20;1.33;;;9.50;99.90;;;;;;5039855;28;20482;-80
2023/12/26 07:23:42;;;;;;;8.60;1.77;;;9.50;99.90;;;;;;5042893;28;20465;-80
2023/12/26 07:26:09;;;;;;;8.27;2.60;;;9.40;99.90;;;;;;5041493;28;20459;-81
2023/12/26 07:28:36;;;;;;;5.30;1.60;;;9.40;99.90;;;;;;5041616;28;20493;-81
2023/12/26 07:31:03;;;;;;;8.47;1.43;;;9.40;99.90;;;;;;5042130;28;20512;-81
2023/12/26 07:33:31;;;;;;;9.87;2.40;;;9.40;99.90;;;;;;5042450;28;20993;-80
2023/12/26 07:36:00;;;;;;;9.53;3.27;;;9.40;99.90;;;;;;5042096;28;20482;-80
2023/12/26 07:38:27;;;;;;;13.30;6.63;;;9.40;99.90;;;;;;5041284;28;20457;-80
2023/12/26 07:40:53;;;;;;;13.13;5.40;;;9.50;99.90;;;;;;5040887;28;20542;-81
2023/12/26 07:43:20;;;;;;;7.03;2.17;;;9.50;99.90;;;;;;5041018;28;20478;-80
2023/12/26 07:45:47;;;;;;;5.50;2.00;;;9.60;99.90;;;;;;5041871;28;20515;-81
2023/12/26 07:48:14;;;;;;;4.60;2.13;;;9.60;99.90;;;;;;5040620;28;20535;-80
2023/12/26 07:50:42;;;;;;;4.53;1.50;;;9.70;99.90;;;;;;5041108;28;20475;-81
2023/12/26 07:53:09;;;;;;;4.73;2.13;;;9.60;99.90;;;;;;5040613;28;20497;-81
2023/12/26 07:55:36;;;;;;;6.53;2.20;;;9.70;99.90;;;;;;5040002;28;20508;-80
2023/12/26 07:58:03;;;;;;;4.90;1.53;;;9.70;99.90;;;;;;5037686;28;20904;-81
2023/12/26 08:00:30;;;;;;;4.80;1.97;;;9.70;99.90;;;;;;5037956;28;20558;-80
2023/12/26 08:02:57;;;;;;;7.43;1.50;;;9.80;99.90;;;;;;5039374;28;20463;-81
2023/12/26 08:05:23;;;;;;;4.20;1.63;;;9.80;99.90;;;;;;5039331;28;21059;-81
2023/12/26 08:07:52;;;;;;;11.13;2.40;;;9.90;99.90;;;;;;5039967;28;20472;-80
2023/12/26 08:10:19;;;;;;;3.97;1.93;;;9.90;99.90;;;;;;5035317;28;20567;-80
2023/12/26 08:12:45;;;;;;;8.73;1.70;;;9.90;99.90;;;;;;5037346;28;20494;-81
2023/12/26 08:15:13;;;;;;;6.30;1.60;;;9.90;99.90;;;;;;5038373;28;21026;-81
2023/12/26 08:17:40;;;;;;;6.23;2.13;;;9.90;99.90;;;;;;5035478;28;20490;-80
2023/12/26 08:20:08;;;;;;;4.93;1.40;;;9.40;99.90;;;;;;5039619;28;20909;-82
2023/12/26 08:22:35;;;;;;;2.23;1.20;;;9.90;99.90;;;;;;5036633;28;20514;-82
2023/12/26 08:25:04;;;;;;;3.57;1.40;;;9.90;99.90;;;;;;5044636;28;20961;-82
2023/12/26 08:27:30;;;;;;;5.03;1.47;;;9.90;99.90;;;;;;5047361;28;20492;-80
2023/12/26 08:29:57;;;;;;;8.80;2.30;;;9.70;99.90;;;;;;5049085;28;21006;-80
2023/12/26 08:32:24;;;;;;;3.80;1.43;;;9.70;99.90;;;;;;5041947;28;20519;-80
2023/12/26 08:34:51;;;;;;;5.17;1.50;;;9.70;99.90;;;;;;5038617;28;20562;-81
2023/12/26 08:37:19;;;;;;;7.57;1.57;;;9.60;99.90;;;;;;5031527;28;20538;-79
2023/12/26 08:39:45;;;;;;;4.00;1.30;;;9.50;99.90;;;;;;5039903;28;20855;-81
2023/12/26 08:42:14;;;;;;;5.97;1.97;;;9.50;99.90;;;;;;5039329;28;20880;-81
2023/12/26 08:44:41;;;;;;;6.30;1.50;;;9.40;99.90;;;;;;5040151;28;20526;-81
2023/12/26 08:47:07;;;;;;;6.80;1.50;;;9.40;99.90;;;;;;5039637;28;20483;-80
2023/12/26 08:49:34;;;;;;;4.43;1.20;;;9.30;99.90;;;;;;5039910;28;20491;-80
2023/12/26 08:52:02;;;;;;;5.73;1.70;;;9.30;99.90;;;;;;5038129;28;20477;-81
2023/12/26 08:54:29;;;;;;;4.30;1.30;;;9.30;99.90;;;;;;5040517;28;20510;-81
2023/12/26 08:56:56;;;;;;;7.60;1.93;;;9.40;99.90;;;;;;5039861;28;20479;-80
2023/12/26 08:59:25;;;;;;;5.87;1.30;;;9.40;99.90;;;;;;5039961;28;20494;-80
2023/12/26 09:01:52;;;;;;;8.67;1.63;;;9.50;99.90;;;;;;5039890;28;20484;-80
2023/12/26 09:04:18;;;;;;;4.80;1.37;;;9.50;99.90;;;;;;5039715;28;20491;-81
2023/12/26 09:06:45;;;;;;;5.57;1.73;;;9.60;99.90;;;;;;5041170;28;20456;-81
2023/12/26 09:09:12;;;;;;;6.93;1.23;;;9.70;99.90;;;;;;5039755;28;20497;-81
2023/12/26 09:11:39;;;;;;;4.87;1.30;;;9.80;99.90;;;;;;5039710;28;20484;-80
2023/12/26 09:14:06;;;;;;;6.93;1.83;;;9.90;99.90;;;;;;5040269;28;20550;-78
2023/12/26 09:16:35;;;;;;;7.90;1.60;;;9.80;99.90;;;;;;5039311;28;20487;-81
2023/12/26 09:19:02;;;;;;;6.30;1.20;;;9.80;99.90;;;;;;5040158;28;20482;-80
2023/12/26 09:21:28;;;;;;;4.87;1.40;;;9.80;99.90;;;;;;5040119;28;20479;-81
2023/12/26 09:23:55;;;;;;;3.17;1.83;;;9.70;99.90;;;;;;5039413;28;20480;-81
2023/12/26 09:26:24;;;;;;;4.80;1.50;;;9.70;99.90;;;;;;5038905;28;20484;-81
2023/12/26 09:28:51;;;;;;;4.40;1.27;;;9.70;99.90;;;;;;5039184;28;20509;-82
2023/12/26 09:31:18;;;;;;;7.90;1.70;;;9.70;99.90;;;;;;5039317;28;20898;-81
2023/12/26 09:33:46;;;;;;;5.33;1.40;;;9.70;99.90;;;;;;5039334;28;20582;-80
2023/12/26 09:36:13;;;;;;;6.53;1.40;;;9.80;99.90;;;;;;5038037;28;20546;-81
2023/12/26 09:38:41;;;;;;;5.37;1.20;;;9.80;99.90;;;;;;5038787;28;20883;-81
2023/12/26 09:41:08;;;;;;;7.23;1.93;;;9.80;99.90;;;;;;5039224;28;20476;-80
2023/12/26 09:43:35;;;;;;;5.60;1.40;;;9.90;99.90;;;;;;5037896;28;20491;-81
2023/12/26 09:46:03;;;;;;;4.87;1.30;;;10.00;99.90;;;;;;5037677;28;20467;-81
2023/12/26 09:48:33;;;;;;;6.80;1.37;;;10.20;99.90;;;;;;5036764;28;20818;-81
2023/12/26 09:51:05;;;;;;;8.67;3.80;;;10.50;99.90;;;;;;5038652;28;20473;-80
2023/12/26 09:53:34;;;;;;;6.47;1.60;;;10.80;99.90;;;;;;5038959;28;20904;-80
2023/12/26 09:56:01;;;;;;;7.87;1.80;;;11.10;99.90;;;;;;5038843;28;20472;-81
2023/12/26 09:58:30;;;;;;;7.27;1.37;;;11.20;99.90;;;;;;5038618;28;20587;-82
2023/12/26 10:00:58;;;;;;;8.03;1.73;;;11.20;99.90;;;;;;5040413;28;20508;-80
2023/12/26 10:03:26;;;;;;;8.30;1.53;;;11.20;99.90;;;;;;5042523;28;20461;-80
2023/12/26 10:05:57;;;;;;;5.27;1.83;;;11.20;99.90;;;;;;5039713;28;20455;-79
2023/12/26 10:08:25;;;;;;;4.27;1.30;;;11.30;99.90;;;;;;5040828;28;20464;-81
2023/12/26 10:10:52;;;;;;;5.87;1.30;;;11.40;99.90;;;;;;5040655;28;20493;-80
2023/12/26 10:13:19;;;;;;;8.90;1.70;;;11.40;99.90;;;;;;5039663;28;20540;-80
2023/12/26 10:15:47;;;;;;;9.30;2.37;;;11.10;99.90;;;;;;5040544;28;20938;-81
2023/12/26 10:18:14;;;;;;;5.00;1.43;;;10.80;99.90;;;;;;5041770;28;20513;-80
2023/12/26 10:20:44;;;;;;;9.30;1.90;;;10.80;99.90;;;;;;5040252;28;20877;-81
2023/12/26 10:23:12;;;;;;;8.17;1.90;;;10.80;99.90;;;;;;5041246;28;20451;-80
2023/12/26 10:25:44;;;;;;;2.17;1.03;;;10.70;99.90;;;;;;5051468;28;20864;-82
2023/12/26 10:28:15;;;;;;;4.53;1.73;;;10.50;99.90;;;;;;5040907;28;20972;-81
2023/12/26 10:30:42;;;;;;;10.27;1.80;;;10.40;99.90;;;;;;5036353;28;20449;-81
2023/12/26 10:33:09;;;;;;;6.53;1.63;;;10.20;99.90;;;;;;5040021;28;20463;-80
2023/12/26 10:35:36;;;;;;;4.60;1.70;;;10.20;99.90;;;;;;5039842;28;20519;-80
2023/12/26 10:38:03;;;;;;;5.57;1.60;;;10.10;99.90;;;;;;5040230;28;20953;-80
2023/12/26 10:40:30;;;;;;;9.80;2.13;;;10.00;99.90;;;;;;5039717;28;20834;-81
2023/12/26 10:43:00;;;;;;;6.10;2.03;;;9.90;99.90;;;;;;5038801;28;20459;-80
2023/12/26 10:45:29;;;;;;;6.07;1.57;;;9.90;99.90;;;;;;5036703;28;20487;-81
2023/12/26 10:47:58;;;;;;;8.73;1.83;;;9.90;99.90;;;;;;5019636;28;20831;-81
2023/12/26 10:50:26;;;;;;;5.80;1.80;;;9.80;99.90;;;;;;5037595;28;21035;-80
2023/12/26 10:53:09;;;;;;;7.97;2.00;;;9.90;99.90;;;;;;5039390;28;20487;-82
2023/12/26 10:55:37;;;;;;;5.87;2.97;;;10.00;99.90;;;;;;5038205;28;20896;-80
2023/12/26 10:58:23;;;;;;;6.27;1.80;;;10.10;99.90;;;;;;5037362;28;20491;-81
2023/12/26 11:00:50;;;;;;;6.93;1.77;;;10.20;99.90;;;;;;5036601;28;20511;-81
2023/12/26 13:52:39;;;;;;;5.80;1.70;;;10.60;99.90;;;;;;5038307;28;20492;-81
2023/12/26 13:55:43;;;;;;;7.20;1.77;;;10.50;99.90;;;;;;5040600;28;20492;-82
2023/12/26 13:58:47;;;;;;;8.70;2.40;;;10.50;99.90;;;;;;5037824;28;20448;-80
2023/12/26 14:01:52;;;;;;;8.83;1.63;;;10.50;99.90;;;;;;5033829;28;20468;-81
2023/12/26 14:04:56;;;;;;;5.10;1.33;;;10.50;99.90;;;;;;5035162;28;20459;-81
2023/12/26 14:08:00;;;;;;;9.87;2.30;;;10.50;99.90;;;;;;5041756;28;20452;-82
2023/12/26 14:11:04;;;;;;;10.90;1.57;;;10.50;99.90;;;;;;5040196;28;20522;-83
2023/12/26 14:14:08;;;;;;;8.43;2.17;;;10.40;99.90;;;;;;5040267;28;20465;-82
2023/12/26 14:17:12;;;;;;;6.63;2.00;;;10.40;99.90;;;;;;5040073;28;20546;-81
2023/12/26 14:20:16;;;;;;;7.07;2.40;;;10.40;99.90;;;;;;5040898;28;20470;-82
2023/12/26 14:23:20;;;;;;;4.37;1.73;;;10.40;99.90;;;;;;5035294;28;20462;-79
2023/12/26 14:26:25;;;;;;;8.27;1.80;;;10.40;99.90;;;;;;5041765;28;20502;-81
2023/12/26 14:29:29;;;;;;;9.30;1.87;;;10.50;99.90;;;;;;5041540;28;20457;-82
2023/12/26 14:32:33;;;;;;;8.60;2.40;;;10.30;99.90;;;;;;5039083;28;20991;-81
2023/12/26 14:35:37;;;;;;;10.53;2.27;;;10.20;99.90;;;;;;5039398;28;20575;-82
2023/12/26 14:38:41;;;;;;;3.63;1.80;;;10.10;99.90;;;;;;5038262;28;20467;-81
2023/12/26 14:41:45;;;;;;;5.63;2.07;;;10.10;99.90;;;;;;5036701;28;20477;-79
2023/12/26 14:44:49;;;;;;;7.57;3.27;;;10.10;99.90;;;;;;5036676;28;20838;-79
2023/12/26 14:47:53;;;;;;;6.00;1.90;;;10.10;99.90;;;;;;5038303;28;20449;-80
2023/12/26 14:50:57;;;;;;;4.50;1.70;;;10.10;99.90;;;;;;5036377;28;20479;-79
2023/12/26 14:54:02;;;;;;;5.30;1.70;;;10.10;99.90;;;;;;5028741;28;20464;-80
2023/12/26 14:57:06;;;;;;;9.43;3.40;;;10.10;99.90;;;;;;5034537;28;20490;-82
2023/12/26 15:00:10;;;;;;;9.37;4.17;;;10.00;99.90;;;;;;5040575;28;20538;-82
2023/12/26 15:02:41;;;;;;;7.67;2.20;;;10.00;99.90;;;;;;5040505;28;20519;-79
2023/12/26 15:05:09;;;;;;;7.47;2.40;;;10.00;99.90;;;;;;5039354;28;20453;-80
2023/12/26 15:07:37;;;;;;;12.33;2.10;;;9.90;99.90;;;;;;5035739;28;20545;-81
2023/12/26 15:10:05;;;;;;;4.17;1.50;;;10.00;99.90;;;;;;5037312;28;20920;-82
2023/12/26 15:12:32;;;;;;;10.53;1.97;;;9.90;99.90;;;;;;5033672;28;20455;-81
2023/12/26 15:14:59;;;;;;;5.87;2.10;;;9.90;99.90;;;;;;5037341;28;20518;-82
2023/12/26 15:17:26;;;;;;;7.87;2.70;;;9.80;99.90;;;;;;5038421;28;20448;-80
2023/12/26 15:19:54;;;;;;;12.50;2.37;;;9.70;99.90;;;;;;5039968;28;20842;-82
2023/12/26 15:22:21;;;;;;;6.13;1.90;;;9.50;99.90;;;;;;5037875;28;20489;-82
2023/12/26 15:24:49;;;;;;;10.53;2.13;;;9.50;99.90;;;;;;5038532;28;20515;-83
2023/12/26 15:27:16;;;;;;;8.60;2.50;;;9.40;99.90;;;;;;5039544;28;20453;-82
2023/12/26 15:29:43;;;;;;;7.03;2.20;;;9.30;99.90;;;;;;5032304;28;20456;-82
2023/12/26 15:32:10;;;;;;;7.47;2.20;;;9.30;99.90;;;;;;5039514;28;20482;-83
2023/12/26 15:34:37;;;;;;;7.13;1.70;;;9.30;99.90;;;;;;5039624;28;20471;-80
2023/12/26 15:37:05;;;;;;;6.53;2.13;;;9.30;99.90;;;;;;5039656;28;20527;-82
2023/12/26 15:39:32;;;;;;;14.60;2.40;;;9.30;99.90;;;;;;5040972;28;20460;-81
2023/12/26 15:42:00;;;;;;;4.67;1.50;;;9.30;99.90;;;;;;5040869;28;20475;-81
2023/12/26 15:44:27;;;;;;;8.63;2.10;;;9.40;99.90;;;;;;5045282;28;20535;-81
2023/12/26 15:46:54;;;;;;;9.30;2.30;;;9.40;99.90;;;;;;5041291;28;20892;-79
2023/12/26 15:49:21;;;;;;;6.60;2.10;;;9.50;99.90;;;;;;5041083;28;20513;-79
2023/12/26 15:51:48;;;;;;;8.27;2.40;;;9.50;99.90;;;;;;5042875;28;20481;-82
2023/12/26 15:54:16;;;;;;;5.43;1.70;;;9.50;99.90;;;;;;5043672;28;20535;-82